EDT,Max TemperatureF,Mean TemperatureF,Min TemperatureF,Max Dew PointF,MeanDew PointF,Min DewpointF,Max Humidity, Mean Humidity, Min Humidity, Max Sea Level PressureIn, Mean Sea Level PressureIn, Min Sea Level PressureIn, Max VisibilityMiles, Mean VisibilityMiles, Min VisibilityMiles, Max Wind SpeedMPH, Mean Wind SpeedMPH, Max Gust SpeedMPH,PrecipitationIn, CloudCover, Events, WindDirDegrees
2012-10-1,81,73,66,76,68,64,100,93,79,29.92,29.89,29.86,10,7,2,13,5,16,0.09,6,Rain,60
2012-10-2,79,77,75,77,75,72,100,95,84,30.03,29.92,29.87,10,7,2,15,8,29,0.46,4,Rain,168
2012-10-3,82,80,77,77,76,74,100,91,82,30.19,30.11,30.04,10,9,6,10,8,,0.00,3,Rain,210
2012-10-4,84,80,73,76,72,69,97,83,63,30.22,30.18,30.14,10,10,9,10,7,,0.00,1,,255
2012-10-5,80,72,64,68,65,61,93,78,56,30.15,30.10,30.04,10,10,9,9,6,,0.00,0,,358
2012-10-6,80,70,60,66,63,60,100,82,52,30.03,29.97,29.90,10,7,1,14,2,,0.01,0,,225
2012-10-7,80,70,60,72,67,58,97,87,74,30.08,30.00,29.95,10,9,6,18,6,23,0.06,4,Rain,309
2012-10-8,71,64,57,66,61,55,100,90,78,30.16,30.08,30.02,10,10,8,15,10,21,0.01,7,Rain,24
2012-10-9,64,60,57,64,60,57,100,97,84,30.08,30.05,30.01,10,6,1,15,9,20,0.00,8,,345
2012-10-10,70,62,55,58,55,52,100,81,57,30.09,30.04,29.97,10,10,10,12,9,20,0.00,5,,287
2012-10-11,68,62,55,55,52,48,89,72,49,30.26,30.21,30.09,10,10,10,16,9,23,0.00,1,,33
2012-10-12,73,60,48,53,50,48,97,71,46,30.30,30.21,30.15,10,10,10,10,4,,0.00,0,,353
2012-10-13,70,62,53,56,50,45,84,64,42,30.41,30.36,30.30,10,10,10,16,9,21,0.00,0,,42
2012-10-14,78,68,57,62,59,56,100,78,52,30.30,30.20,30.08,10,10,10,9,4,,0.00,1,,84
2012-10-15,78,68,60,71,66,60,100,86,69,30.03,29.86,29.74,10,10,9,15,5,,0.00,2,,241
2012-10-16,68,60,52,61,50,45,93,71,45,29.94,29.88,29.78,10,10,10,17,11,23,0.00,0,,358
2012-10-17,68,58,51,55,52,49,96,79,59,30.02,29.98,29.93,10,10,10,9,3,,0.00,0,,60
2012-10-18,78,67,57,70,62,54,100,88,64,29.95,29.90,29.82,10,8,1,10,4,,0.03,3,,130
2012-10-19,77,73,69,71,69,61,100,88,69,29.82,29.78,29.74,10,10,7,12,7,,0.00,1,,224
2012-10-20,75,68,61,59,51,43,78,58,35,29.92,29.84,29.80,10,10,10,16,8,20,0.00,0,,262
2012-10-21,71,61,52,53,49,44,93,68,50,30.14,30.05,29.92,10,10,9,10,6,,0.00,0,,1
2012-10-22,71,58,46,51,48,44,97,73,41,30.22,30.17,30.15,10,10,8,10,2,,0.00,0,,349
2012-10-23,73,61,50,54,51,48,100,79,43,30.20,30.17,30.14,10,10,8,9,2,,0.00,0,,272
2012-10-24,78,66,55,67,61,55,100,90,60,30.20,30.15,30.11,10,7,1,8,3,,0.01,1,,210
2012-10-25,79,67,55,65,60,55,100,95,58,30.17,30.12,30.10,10,4,0,9,2,,0.01,1,Fog,56
2012-10-26,75,68,61,68,65,61,100,94,76,30.07,29.96,29.83,10,7,2,18,13,26,0.19,5,Rain,27
2012-10-27,70,66,62,66,64,62,100,95,84,29.78,29.55,29.45,10,6,2,31,20,45,1.61,7,Rain,21
2012-10-28,62,58,55,63,59,52,100,98,87,29.43,29.38,29.31,10,5,2,38,29,52,1.04,8,Rain,352
2012-10-29,55,52,48,53,48,39,100,86,69,29.39,29.37,29.33,10,10,6,32,26,40,0.00,8,,293
2012-10-30,57,52,48,43,38,36,71,60,51,29.64,29.50,29.39,10,10,10,26,20,39,0.00,5,,263
2012-10-31,57,52,48,42,38,35,66,58,49,29.79,29.71,29.66,10,10,10,16,13,22,0.00,1,,264